TSO103 ULLI-UUEE
Flight info
| Callsign | TSO103 |
|---|---|
| Flight time | N/A |
| Altitude | 37000 |
| Route | SUGIN1C SUGIN T873 NIRGI T73 NAMIN NAMIN3E |
| Aircraft | A359/H-SDE2E3GHIJ3J4J5LM1ORWXY/LB1D1 |
Departure
| Time | 2026-05-07 16:37 |
|---|---|
| Airport | Pulkovo Airport (ULLI) |
Arrival
| Time | N/A |
|---|---|
| Airport | Sheremetyevo International Airport (UUEE) |
| Time | Latitude | Longitude | Altitude | Speed | Heading |
|---|---|---|---|---|---|
| 2026-05-07 16:37 | 59.72862 | 30.70984 | 10829 ft | 321 kts | 104° |
| 2026-05-07 16:37 | 59.72268 | 30.75425 | 11198 ft | 345 kts | 104° |
| 2026-05-07 16:37 | 59.71634 | 30.80133 | 11714 ft | 361 kts | 105° |
| 2026-05-07 16:37 | 59.70976 | 30.84999 | 12445 ft | 370 kts | 105° |
| 2026-05-07 16:38 | 59.70308 | 30.89920 | 13190 ft | 378 kts | 106° |
| 2026-05-07 16:38 | 59.69614 | 30.95005 | 13912 ft | 387 kts | 107° |
| 2026-05-07 16:38 | 59.68902 | 31.00206 | 14577 ft | 394 kts | 107° |
| 2026-05-07 16:38 | 59.68178 | 31.05487 | 15247 ft | 401 kts | 107° |
| 2026-05-07 16:39 | 59.67439 | 31.10855 | 15930 ft | 408 kts | 107° |
| 2026-05-07 16:39 | 59.66685 | 31.16315 | 16615 ft | 414 kts | 108° |
| 2026-05-07 16:39 | 59.65914 | 31.21870 | 17298 ft | 421 kts | 108° |
| 2026-05-07 16:39 | 59.65142 | 31.27425 | 18012 ft | 427 kts | 108° |
| 2026-05-07 16:40 | 59.64342 | 31.33155 | 18653 ft | 434 kts | 108° |
| 2026-05-07 16:40 | 59.63531 | 31.38946 | 19318 ft | 439 kts | 109° |
| 2026-05-07 16:40 | 59.62708 | 31.44796 | 20043 ft | 444 kts | 109° |
| 2026-05-07 16:40 | 59.61874 | 31.50709 | 20709 ft | 449 kts | 110° |
| 2026-05-07 16:41 | 59.61027 | 31.56692 | 21321 ft | 455 kts | 110° |
| 2026-05-07 16:41 | 59.60163 | 31.62766 | 21957 ft | 461 kts | 110° |
| 2026-05-07 16:41 | 59.59287 | 31.68902 | 22614 ft | 467 kts | 111° |
| 2026-05-07 16:41 | 59.58408 | 31.75042 | 23237 ft | 472 kts | 111° |
| 2026-05-07 16:42 | 59.57503 | 31.81330 | 23829 ft | 478 kts | 111° |
| 2026-05-07 16:42 | 59.56592 | 31.87650 | 24428 ft | 481 kts | 111° |
| 2026-05-07 16:42 | 59.55671 | 31.94008 | 25050 ft | 484 kts | 111° |
| 2026-05-07 16:42 | 59.54741 | 32.00399 | 25656 ft | 486 kts | 112° |
| 2026-05-07 16:43 | 59.53626 | 32.06670 | 26231 ft | 483 kts | 120° |
| 2026-05-07 16:43 | 59.52025 | 32.12424 | 26839 ft | 474 kts | 132° |
| 2026-05-07 16:43 | 59.49985 | 32.17449 | 27422 ft | 467 kts | 140° |
| 2026-05-07 16:43 | 59.47767 | 32.22099 | 28104 ft | 464 kts | 143° |
| 2026-05-07 16:44 | 59.45500 | 32.26529 | 28695 ft | 465 kts | 144° |
| 2026-05-07 16:44 | 59.43168 | 32.30950 | 29240 ft | 468 kts | 145° |
| 2026-05-07 16:44 | 59.40808 | 32.35401 | 29794 ft | 471 kts | 144° |
| 2026-05-07 16:44 | 59.38447 | 32.39876 | 30288 ft | 474 kts | 144° |
| 2026-05-07 16:45 | 59.36064 | 32.44427 | 30662 ft | 479 kts | 144° |
| 2026-05-07 16:45 | 59.33669 | 32.49022 | 30958 ft | 484 kts | 143° |
| 2026-05-07 16:45 | 59.31255 | 32.53670 | 31280 ft | 489 kts | 143° |
| 2026-05-07 16:45 | 59.28855 | 32.58298 | 31626 ft | 492 kts | 143° |
| 2026-05-07 16:46 | 59.26401 | 32.63023 | 31899 ft | 497 kts | 143° |
| 2026-05-07 16:46 | 59.23934 | 32.67766 | 32200 ft | 500 kts | 143° |
| 2026-05-07 16:46 | 59.21439 | 32.72552 | 32533 ft | 503 kts | 143° |
| 2026-05-07 16:46 | 59.18926 | 32.77357 | 32837 ft | 506 kts | 143° |
| 2026-05-07 16:47 | 59.16391 | 32.82194 | 33200 ft | 508 kts | 143° |
| 2026-05-07 16:47 | 59.13897 | 32.86947 | 33657 ft | 507 kts | 143° |
| 2026-05-07 16:47 | 59.11370 | 32.91751 | 34082 ft | 507 kts | 144° |
| 2026-05-07 16:47 | 59.08838 | 32.96551 | 34433 ft | 507 kts | 143° |
| 2026-05-07 16:48 | 59.06302 | 33.01347 | 34788 ft | 507 kts | 143° |
| 2026-05-07 16:48 | 59.03762 | 33.06138 | 35145 ft | 507 kts | 143° |
| 2026-05-07 16:48 | 59.01257 | 33.10852 | 35456 ft | 507 kts | 143° |
| 2026-05-07 16:48 | 58.98727 | 33.15601 | 35775 ft | 508 kts | 143° |
| 2026-05-07 16:49 | 58.96185 | 33.20363 | 36078 ft | 508 kts | 143° |
| 2026-05-07 16:49 | 58.93642 | 33.25117 | 36383 ft | 509 kts | 142° |
| 2026-05-07 16:49 | 58.91094 | 33.29874 | 36673 ft | 509 kts | 142° |
| 2026-05-07 16:49 | 58.88539 | 33.34638 | 36943 ft | 510 kts | 142° |
| 2026-05-07 16:50 | 58.85977 | 33.39396 | 37009 ft | 511 kts | 142° |
| 2026-05-07 16:50 | 58.80839 | 33.48902 | 36998 ft | 511 kts | 142° |
| 2026-05-07 16:51 | 58.75723 | 33.58329 | 37001 ft | 512 kts | 142° |
| 2026-05-07 16:51 | 58.70564 | 33.67798 | 37009 ft | 512 kts | 142° |
| 2026-05-07 16:52 | 58.65409 | 33.77220 | 36995 ft | 512 kts | 142° |
| 2026-05-07 16:52 | 58.60240 | 33.86625 | 36941 ft | 511 kts | 142° |
| 2026-05-07 16:53 | 58.55059 | 33.96013 | 36985 ft | 512 kts | 142° |
| 2026-05-07 16:53 | 58.49898 | 34.05323 | 36985 ft | 512 kts | 142° |
| 2026-05-07 16:54 | 58.44703 | 34.14656 | 36983 ft | 512 kts | 142° |
| 2026-05-07 16:54 | 58.39499 | 34.23966 | 36982 ft | 512 kts | 142° |
| 2026-05-07 16:55 | 58.34288 | 34.33249 | 36983 ft | 511 kts | 142° |
| 2026-05-07 16:55 | 58.29122 | 34.42414 | 36972 ft | 510 kts | 142° |
| 2026-05-07 16:56 | 58.23923 | 34.51597 | 36969 ft | 510 kts | 142° |
| 2026-05-07 16:56 | 58.16930 | 34.63684 | 36964 ft | 508 kts | 145° |
| 2026-05-07 16:57 | 58.11494 | 34.72194 | 36964 ft | 507 kts | 147° |
| 2026-05-07 16:57 | 58.05142 | 34.82005 | 36960 ft | 506 kts | 146° |
| 2026-05-07 16:58 | 58.00596 | 34.89092 | 36946 ft | 506 kts | 146° |
| 2026-05-07 16:58 | 57.95173 | 34.97574 | 36946 ft | 507 kts | 146° |
| 2026-05-07 16:59 | 57.89768 | 35.06010 | 36926 ft | 507 kts | 146° |
| 2026-05-07 16:59 | 57.84316 | 35.14478 | 36944 ft | 509 kts | 146° |
| 2026-05-07 17:00 | 57.78850 | 35.22934 | 36943 ft | 509 kts | 146° |
| 2026-05-07 17:00 | 57.73374 | 35.31369 | 36937 ft | 509 kts | 146° |
| 2026-05-07 17:01 | 57.67894 | 35.39777 | 36930 ft | 509 kts | 146° |
| 2026-05-07 17:01 | 57.62406 | 35.48162 | 36925 ft | 509 kts | 146° |
| 2026-05-07 17:02 | 57.57034 | 35.56368 | 36732 ft | 492 kts | 146° |
| 2026-05-07 17:02 | 57.54385 | 35.60412 | 35915 ft | 495 kts | 146° |
| 2026-05-07 17:02 | 57.51702 | 35.64489 | 35126 ft | 498 kts | 147° |
| 2026-05-07 17:03 | 57.49006 | 35.68577 | 34364 ft | 500 kts | 147° |
| 2026-05-07 17:03 | 57.46302 | 35.72667 | 33502 ft | 503 kts | 147° |
| 2026-05-07 17:03 | 57.43571 | 35.76789 | 32639 ft | 505 kts | 147° |
| 2026-05-07 17:03 | 57.40838 | 35.80908 | 31771 ft | 506 kts | 146° |
| 2026-05-07 17:04 | 57.38136 | 35.84976 | 30904 ft | 507 kts | 146° |
| 2026-05-07 17:04 | 57.35385 | 35.89112 | 29998 ft | 508 kts | 146° |
| 2026-05-07 17:04 | 57.32638 | 35.93237 | 29129 ft | 506 kts | 146° |
| 2026-05-07 17:04 | 57.29914 | 35.97324 | 28453 ft | 501 kts | 146° |
| 2026-05-07 17:05 | 57.27212 | 36.01372 | 27789 ft | 495 kts | 146° |
| 2026-05-07 17:05 | 57.24547 | 36.05354 | 27104 ft | 490 kts | 146° |
| 2026-05-07 17:05 | 57.21907 | 36.09288 | 26463 ft | 485 kts | 146° |
| 2026-05-07 17:05 | 57.19288 | 36.13181 | 25797 ft | 481 kts | 146° |
| 2026-05-07 17:06 | 57.16726 | 36.16979 | 25177 ft | 477 kts | 146° |
| 2026-05-07 17:06 | 57.14149 | 36.20792 | 24548 ft | 473 kts | 146° |
| 2026-05-07 17:06 | 57.11580 | 36.24587 | 23909 ft | 470 kts | 146° |
| 2026-05-07 17:06 | 57.09035 | 36.28340 | 23233 ft | 467 kts | 146° |
| 2026-05-07 17:07 | 57.06511 | 36.32056 | 22557 ft | 462 kts | 146° |
| 2026-05-07 17:07 | 57.04009 | 36.35735 | 21910 ft | 457 kts | 146° |
| 2026-05-07 17:07 | 57.01539 | 36.39360 | 21321 ft | 452 kts | 146° |
| 2026-05-07 17:07 | 56.99084 | 36.42922 | 20702 ft | 447 kts | 146° |
| 2026-05-07 17:08 | 56.96677 | 36.46387 | 20080 ft | 443 kts | 147° |
| 2026-05-07 17:08 | 56.94261 | 36.49853 | 19448 ft | 439 kts | 147° |
| 2026-05-07 17:08 | 56.91860 | 36.53292 | 18828 ft | 436 kts | 147° |
| 2026-05-07 17:08 | 56.89471 | 36.56711 | 18192 ft | 434 kts | 147° |
| 2026-05-07 17:09 | 56.87101 | 36.60121 | 17583 ft | 429 kts | 147° |
| 2026-05-07 17:09 | 56.84808 | 36.63446 | 17456 ft | 411 kts | 147° |
| 2026-05-07 17:09 | 56.82613 | 36.66628 | 17323 ft | 394 kts | 147° |
| 2026-05-07 17:09 | 56.80526 | 36.69644 | 17207 ft | 379 kts | 147° |
| 2026-05-07 17:10 | 56.78495 | 36.72573 | 17066 ft | 365 kts | 147° |
| 2026-05-07 17:10 | 56.76534 | 36.75393 | 16910 ft | 353 kts | 148° |
| 2026-05-07 17:10 | 56.74615 | 36.78145 | 16473 ft | 351 kts | 148° |
| 2026-05-07 17:10 | 56.72697 | 36.80891 | 16030 ft | 350 kts | 148° |
| 2026-05-07 17:11 | 56.70875 | 36.83845 | 15662 ft | 351 kts | 142° |
| 2026-05-07 17:11 | 56.69133 | 36.86970 | 15328 ft | 353 kts | 141° |
| 2026-05-07 17:11 | 56.67392 | 36.90128 | 14983 ft | 352 kts | 141° |
| 2026-05-07 17:11 | 56.65665 | 36.93260 | 14639 ft | 349 kts | 141° |
| 2026-05-07 17:12 | 56.63971 | 36.96325 | 14305 ft | 346 kts | 141° |
| 2026-05-07 17:12 | 56.62265 | 36.99404 | 13973 ft | 344 kts | 141° |
| 2026-05-07 17:12 | 56.60570 | 37.02458 | 13628 ft | 342 kts | 141° |
| 2026-05-07 17:12 | 56.58884 | 37.05488 | 13271 ft | 340 kts | 142° |
| 2026-05-07 17:13 | 56.57215 | 37.08487 | 13001 ft | 333 kts | 142° |
| 2026-05-07 17:13 | 56.55599 | 37.11395 | 12793 ft | 322 kts | 142° |
| 2026-05-07 17:13 | 56.54035 | 37.14207 | 12535 ft | 309 kts | 143° |
| 2026-05-07 17:13 | 56.52497 | 37.16874 | 12249 ft | 300 kts | 148° |
| 2026-05-07 17:14 | 56.50745 | 37.18740 | 11960 ft | 285 kts | 167° |
| 2026-05-07 17:14 | 56.48894 | 37.19685 | 11512 ft | 282 kts | 175° |
| 2026-05-07 17:14 | 56.46962 | 37.20441 | 11185 ft | 284 kts | 175° |
| 2026-05-07 17:14 | 56.45035 | 37.21196 | 10898 ft | 283 kts | 175° |
| 2026-05-07 17:15 | 56.43122 | 37.21958 | 10629 ft | 281 kts | 175° |
| 2026-05-07 17:15 | 56.41216 | 37.22725 | 10403 ft | 280 kts | 175° |
| 2026-05-07 17:15 | 56.39314 | 37.23492 | 10180 ft | 280 kts | 175° |
| 2026-05-07 17:15 | 56.37417 | 37.24261 | 9915 ft | 278 kts | 175° |
| 2026-05-07 17:16 | 56.35529 | 37.25027 | 9627 ft | 277 kts | 175° |
| 2026-05-07 17:16 | 56.33648 | 37.25789 | 9350 ft | 276 kts | 175° |
| 2026-05-07 17:16 | 56.31777 | 37.26545 | 9078 ft | 276 kts | 175° |
| 2026-05-07 17:16 | 56.29905 | 37.27301 | 8804 ft | 275 kts | 175° |
| 2026-05-07 17:17 | 56.28102 | 37.28036 | 8656 ft | 264 kts | 175° |
| 2026-05-07 17:17 | 56.26352 | 37.28753 | 8511 ft | 253 kts | 175° |
| 2026-05-07 17:17 | 56.24662 | 37.29441 | 8282 ft | 246 kts | 175° |
| 2026-05-07 17:17 | 56.23022 | 37.30218 | 8037 ft | 241 kts | 172° |
| 2026-05-07 17:18 | 56.21415 | 37.31043 | 7792 ft | 240 kts | 172° |
| 2026-05-07 17:18 | 56.19803 | 37.31865 | 7541 ft | 240 kts | 172° |
| 2026-05-07 17:18 | 56.18232 | 37.32952 | 7294 ft | 249 kts | 157° |
| 2026-05-07 17:18 | 56.17004 | 37.35250 | 7045 ft | 266 kts | 122° |
| 2026-05-07 17:19 | 56.16646 | 37.38498 | 6658 ft | 276 kts | 86° |
| 2026-05-07 17:19 | 56.17065 | 37.41860 | 6345 ft | 275 kts | 73° |
| 2026-05-07 17:19 | 56.17616 | 37.45147 | 6043 ft | 274 kts | 73° |
| 2026-05-07 17:19 | 56.18149 | 37.48402 | 5790 ft | 271 kts | 74° |
| 2026-05-07 17:20 | 56.18662 | 37.51653 | 5519 ft | 269 kts | 75° |
| 2026-05-07 17:20 | 56.19154 | 37.54884 | 5254 ft | 267 kts | 76° |
| 2026-05-07 17:20 | 56.19290 | 37.58157 | 4985 ft | 262 kts | 103° |
| 2026-05-07 17:20 | 56.18519 | 37.60990 | 4876 ft | 251 kts | 134° |
| 2026-05-07 17:21 | 56.17340 | 37.63270 | 4744 ft | 249 kts | 139° |
| 2026-05-07 17:21 | 56.16114 | 37.65476 | 4620 ft | 249 kts | 139° |
| 2026-05-07 17:21 | 56.14891 | 37.67682 | 4522 ft | 249 kts | 139° |
| 2026-05-07 17:21 | 56.13676 | 37.69889 | 4390 ft | 248 kts | 139° |
| 2026-05-07 17:22 | 56.12492 | 37.72048 | 4280 ft | 241 kts | 139° |
| 2026-05-07 17:22 | 56.11342 | 37.74153 | 4164 ft | 230 kts | 139° |
| 2026-05-07 17:22 | 56.10227 | 37.76118 | 4031 ft | 218 kts | 144° |
| 2026-05-07 17:22 | 56.08932 | 37.77219 | 3907 ft | 201 kts | 179° |
| 2026-05-07 17:23 | 56.07584 | 37.76928 | 3834 ft | 194 kts | 200° |
| 2026-05-07 17:23 | 56.06294 | 37.76200 | 3695 ft | 195 kts | 202° |
| 2026-05-07 17:23 | 56.05021 | 37.75436 | 3564 ft | 195 kts | 202° |
| 2026-05-07 17:23 | 56.03727 | 37.74671 | 3442 ft | 195 kts | 202° |
| 2026-05-07 17:24 | 56.02493 | 37.73753 | 3322 ft | 189 kts | 216° |
| 2026-05-07 17:24 | 56.01666 | 37.72011 | 3209 ft | 184 kts | 248° |
| 2026-05-07 17:24 | 56.01331 | 37.69808 | 3120 ft | 183 kts | 259° |
| 2026-05-07 17:24 | 56.01048 | 37.67583 | 3049 ft | 183 kts | 255° |
| 2026-05-07 17:25 | 56.00719 | 37.65469 | 2973 ft | 170 kts | 255° |
| 2026-05-07 17:25 | 56.00418 | 37.63501 | 2846 ft | 160 kts | 255° |
| 2026-05-07 17:25 | 56.00131 | 37.61588 | 2562 ft | 157 kts | 255° |
| 2026-05-07 17:25 | 55.99857 | 37.59741 | 2372 ft | 151 kts | 255° |
| 2026-05-07 17:26 | 55.99593 | 37.57963 | 2168 ft | 144 kts | 255° |
| 2026-05-07 17:26 | 55.99344 | 37.56294 | 1976 ft | 134 kts | 255° |
| 2026-05-07 17:26 | 55.99106 | 37.54691 | 1801 ft | 133 kts | 256° |
| 2026-05-07 17:26 | 55.98872 | 37.53098 | 1622 ft | 133 kts | 256° |